< < Back
Terminal Aerodrome Forecast


Current Version              Previous Versions:   1  2  3  4  5  6  7  8  9  

Terminal Aerodrome Forecast

818
FTUS44 KMRX 281722
TAFTYS
TAF
KTYS 281722Z 2818/2918 29012G18KT P6SM SCT050
     FM290200 33004KT P6SM SCT120 BKN200
     FM291400 28008KT P6SM SCT060=



Latest METAR

105
SAUS80 KWBC 291200 RRA
MTRTYS
METAR KTYS 291153Z 03004KT 10SM FEW060 18/16 A3001 RMK AO2 SLP153
T01780156 10200 20161 53007


USA.gov is the U.S. government's official web portal to all federal, state and local government web resources and services.